Latest Weather Observations for Casey*

IDT60801

Issued at 4:32 pm EST Friday 18 August 2017 (issued every 30 minutes, with the page automatically refreshed every 10 minutes)

About weather observations | Map of weather stations | Latest weather observations for ANT | Other Formats
Station Details ID: 300017 Name: CASEY Lat: -66.28 Lon: 110.52 Height: 40.0 m
Data from the previous 72 hours. | See also: Recent months at Casey*
Date/Time
EST
Temp
°C
App
Temp
°C
Dew
Point
°C
Rel
Hum
%
Delta-T
°C
Wind Press
QNH
hPa
Press
MSL
hPa
Rain since
9am
mm
Dir  Spd
km/h
Gust
km/h
Spd
kts
Gust
kts
18/04:30pm -20.1 -27.4 -22.9 78 - NE 19 22 10 12 970.6 - -
18/04:00pm -19.5 -27.0 -22.2 79 - NE 20 24 11 13 970.5 970.9 -
18/03:30pm -19.4 -26.3 -22.1 79 - NNE 17 22 9 12 970.1 - -
18/03:00pm -19.1 -26.0 -21.8 79 - N 17 22 9 12 969.7 - -
18/02:30pm -19.5 -26.4 -22.2 79 - N 17 20 9 11 969.3 - -
18/02:00pm -19.7 -27.2 -22.5 78 - NNE 20 22 11 12 969.0 - -
18/01:30pm -20.1 -27.4 -22.8 79 - NNE 19 24 10 13 968.7 - -
18/01:00pm -20.4 -27.3 -23.1 79 - NNE 17 22 9 12 968.4 968.9 -
18/12:30pm -20.3 -27.6 -22.7 81 - NNE 19 22 10 12 968.1 - -
18/12:00pm -20.4 -27.3 -22.9 80 - NNE 17 20 9 11 967.8 - -
18/11:30am -20.6 -27.5 -23.1 80 - NNE 17 20 9 11 967.5 - -
18/11:00am -20.3 -28.2 -23.0 79 - N 22 26 12 14 967.1 - -
18/10:30am -20.3 -27.8 -23.0 79 - N 20 26 11 14 966.6 - -
18/10:00am -20.3 -28.5 -22.8 80 - N 24 30 13 16 966.0 966.5 -
18/09:30am -20.3 -28.5 -22.8 80 - N 24 30 13 16 965.7 - -
18/09:00am -20.2 -29.2 -22.9 79 - NNE 28 33 15 18 965.5 - -
18/08:30am -19.9 -28.1 -22.6 79 - NNE 24 32 13 17 965.2 - -
18/08:00am -19.5 -27.0 -22.5 77 - NNE 20 28 11 15 964.8 - -
18/07:30am -20.0 -27.3 -23.3 75 - NNE 19 20 10 11 964.6 - -
18/07:00am -21.8 -27.7 -26.4 66 - NNE 11 13 6 7 964.2 964.7 -
18/06:30am -22.5 -27.6 -26.9 67 - S 7 11 4 6 964.0 - -
18/06:00am -22.6 -27.7 -27.3 65 - S 7 11 4 6 964.0 - -
18/05:30am -22.4 -29.0 -26.8 67 - S 15 17 8 9 963.8 - -
18/05:00am -22.3 -28.5 -26.6 68 - SSE 13 17 7 9 964.2 - -
18/04:30am -22.5 -28.7 -26.1 72 - S 13 15 7 8 964.8 - -
18/04:00am -22.3 -27.4 -25.8 73 - E 7 9 4 5 965.5 966.1 -
18/03:30am -22.0 -26.9 -26.3 68 - ENE 6 7 3 4 966.5 - -
18/03:00am -22.0 -27.5 -26.4 67 - NNE 9 11 5 6 967.1 - -
18/02:30am -22.9 -27.4 -27.0 69 - ENE 4 9 2 5 967.9 - -
18/02:00am -22.9 -29.1 -27.0 69 - SSW 13 17 7 9 968.8 - -
18/01:30am -23.1 -29.7 -27.8 65 - S 15 20 8 11 969.4 - -
18/01:00am -23.4 -29.7 -28.4 63 - S 13 17 7 9 970.3 970.8 -
18/12:30am -22.3 -27.8 -29.0 54 - WSW 9 17 5 9 971.4 - -
18/12:00am -21.8 -25.6 -29.2 51 - CALM 0 0 0 0 972.1 - -
 
Date/Time
EST
Temp
°C
App
Temp
°C
Dew
Point
°C
Rel
Hum
%
Delta-T
°C
Wind Press
QNH
hPa
Press
MSL
hPa
Rain since
9am
mm
Dir  Spd
km/h
Gust
km/h
Spd
kts
Gust
kts
17/11:30pm -22.7 -29.0 -28.8 57 - S 13 17 7 9 972.8 - -
17/11:00pm -23.5 -29.8 -29.4 58 - S 13 17 7 9 973.4 - -
17/10:30pm -24.3 -29.8 -30.2 58 - S 9 13 5 7 974.8 - -
17/10:00pm -24.0 -31.6 -30.6 54 - S 20 26 11 14 975.4 975.9 -
17/09:30pm -24.2 -30.1 -28.9 65 - SE 11 13 6 7 976.1 - -
17/09:00pm -23.5 -29.4 -28.0 66 - NE 11 17 6 9 976.8 - -
17/08:30pm -24.1 -30.4 -29.6 60 - N 13 17 7 9 977.7 - -
17/08:00pm -24.6 -31.3 -29.9 61 - NNE 15 20 8 11 978.1 - -
17/07:30pm -25.2 -31.9 -30.8 60 - NNE 15 20 8 11 978.7 - -
17/07:00pm -24.1 -30.4 -30.9 53 - NNE 13 17 7 9 978.7 979.3 -
17/06:30pm -23.8 -29.7 -29.9 57 - N 11 15 6 8 979.5 - -
17/06:00pm -24.4 -30.7 -31.2 53 - NE 13 15 7 8 980.1 - -
17/05:30pm -23.6 -29.9 -31.5 48 - NE 13 17 7 9 981.0 - -
17/05:00pm -25.2 -31.9 -30.5 61 - ENE 15 17 8 9 981.2 - -
17/04:30pm -25.3 -31.6 -30.6 61 - ENE 13 17 7 9 981.5 - -
17/04:00pm -23.8 -28.8 -33.8 39 - S 6 7 3 4 981.7 982.3 -
17/03:30pm -23.9 -29.9 -33.4 41 - S 11 15 6 8 982.1 - -
17/03:00pm -24.7 -31.4 -32.3 49 - SSE 15 17 8 9 982.5 - -
17/02:30pm -24.4 -30.3 -30.6 56 - SSE 11 13 6 7 983.0 - -
17/02:00pm -24.2 -29.7 -30.3 57 - SE 9 13 5 7 983.4 - -
17/01:30pm -25.7 -31.6 -31.3 59 - E 11 15 6 8 983.8 - -
17/01:00pm -25.0 -30.5 -30.3 61 - NW 9 13 5 7 984.7 985.2 -
17/12:30pm -24.8 -30.0 -32.0 51 - E 7 9 4 5 983.8 - -
17/12:00pm -25.9 -31.5 -32.8 52 - ENE 9 11 5 6 984.5 - -
17/11:30am -26.5 -30.8 -34.6 46 - ESE 2 6 1 3 984.6 - -
17/11:00am -28.0 -32.7 -35.2 50 - ESE 4 7 2 4 984.7 - -
17/10:30am -27.0 -32.6 -33.4 55 - NNE 9 11 5 6 984.6 - -
17/10:00am -27.4 -33.7 -33.5 56 - N 13 17 7 9 984.9 985.4 -
17/09:30am -27.5 -33.1 -34.5 51 - NE 9 13 5 7 985.0 - -
17/09:00am -28.2 -35.3 -35.0 52 - S 17 20 9 11 985.1 - -
17/08:30am -28.5 -35.6 -34.3 57 - S 17 19 9 10 984.9 - -
17/08:00am -28.7 -35.8 -34.3 59 - S 17 20 9 11 984.9 - -
17/07:30am -29.1 -36.6 -34.2 61 - S 19 22 10 12 985.0 - -
17/07:00am -28.9 -35.2 -32.9 68 - S 13 13 7 7 985.1 985.6 -
17/06:30am -27.3 -33.2 -31.7 66 - SE 11 15 6 8 985.3 - -
17/06:00am -27.0 -32.9 -31.1 68 - SE 11 13 6 7 985.4 - -
17/05:30am -27.6 -33.6 -32.4 64 - SSE 11 13 6 7 985.4 - -
17/05:00am -27.7 -33.7 -32.5 64 - SSE 11 17 6 9 985.2 - -
17/04:30am -27.5 -34.2 -32.3 64 - ENE 15 19 8 10 985.2 - -
17/04:00am -27.6 -35.6 -32.6 62 - E 22 28 12 15 985.0 985.4 -
17/03:30am -27.2 -32.4 -30.5 73 - NE 7 11 4 6 984.7 - -
17/03:00am -28.6 -33.8 -32.8 67 - S 7 9 4 5 985.1 - -
17/02:30am -27.9 -33.1 -31.5 71 - S 7 9 4 5 985.2 - -
17/02:00am -26.7 -32.6 -30.2 72 - NE 11 11 6 6 985.0 - -
17/01:30am -27.5 -33.1 -31.1 71 - SE 9 13 5 7 985.0 - -
17/01:00am -28.9 -36.4 -33.1 67 - SSE 19 20 10 11 985.0 985.5 -
17/12:30am -28.4 -34.7 -32.3 69 - S 13 17 7 9 984.9 - -
17/12:00am -27.8 -34.1 -31.6 70 - SSE 13 13 7 7 985.1 - -
 
Date/Time
EST
Temp
°C
App
Temp
°C
Dew
Point
°C
Rel
Hum
%
Delta-T
°C
Wind Press
QNH
hPa
Press
MSL
hPa
Rain since
9am
mm
Dir  Spd
km/h
Gust
km/h
Spd
kts
Gust
kts
16/11:30pm -27.5 -33.8 -31.3 70 - S 13 15 7 8 985.2 - -
16/11:00pm -27.5 -33.4 -31.3 70 - S 11 15 6 8 985.3 - -
16/10:30pm -26.6 -33.3 -30.4 70 - S 15 17 8 9 985.1 - -
16/10:00pm -24.4 -30.3 -28.6 68 - SSE 11 22 6 12 985.5 986.0 -
16/09:30pm -23.8 -30.1 -28.0 68 - ESE 13 17 7 9 985.5 - -
16/09:00pm -23.3 -29.9 -27.8 67 - ENE 15 19 8 10 985.6 - -
16/08:30pm -24.5 -29.6 -28.5 69 - ESE 7 11 4 6 985.2 - -
16/08:00pm -23.0 -29.6 -27.1 69 - NE 15 20 8 11 984.7 - -
16/07:30pm -23.0 -30.4 -26.9 70 - NE 19 24 10 13 984.5 - -
16/07:00pm -25.3 -30.8 -29.4 69 - SSE 9 15 5 8 984.4 984.9 -
16/06:30pm -26.1 -33.2 -30.5 66 - SSE 17 20 9 11 984.2 - -
16/06:00pm -24.6 -30.1 -28.3 71 - SSE 9 15 5 8 984.2 - -
16/05:30pm -24.4 -30.3 -28.6 68 - SSE 11 15 6 8 984.0 - -
16/05:00pm -24.1 -29.6 -28.6 66 - ESE 9 13 5 7 984.0 - -
16/04:30pm -23.4 -28.4 -29.1 59 - NNE 6 9 3 5 983.9 - -
16/04:00pm -25.3 -30.3 -31.7 55 - NE 6 7 3 4 983.5 984.1 -
16/03:30pm -26.6 -33.7 -33.3 53 - S 17 20 9 11 983.6 - -
16/03:00pm -25.5 -33.0 -30.8 61 - SSE 19 22 10 12 983.9 - -
16/02:30pm -25.5 -33.5 -30.6 62 - SSE 22 30 12 16 984.0 - -
16/02:00pm -25.5 -34.3 -30.8 61 - SSE 26 32 14 17 984.0 - -
16/01:30pm -24.3 -31.4 -29.6 61 - S 17 24 9 13 983.9 - -
16/01:00pm -25.1 -32.7 -30.1 63 - SSE 20 26 11 14 983.9 984.3 -
16/12:30pm -25.5 -33.9 -31.1 59 - SSE 24 30 13 16 983.6 - -
16/12:00pm -24.9 -32.5 -29.9 63 - SSE 20 26 11 14 983.6 - -
16/11:30am -25.7 -34.1 -30.8 62 - SSE 24 33 13 18 983.5 - -
16/11:00am -23.2 -29.1 -27.4 68 - NE 11 13 6 7 983.3 - -
16/10:30am -25.0 -31.7 -29.5 66 - NE 15 15 8 8 983.1 - -
16/10:00am -28.2 -32.8 -33.9 58 - SSE 4 11 2 6 983.2 983.8 -
16/09:30am -28.2 -36.6 -34.2 56 - S 24 32 13 17 983.6 - -
16/09:00am -27.7 -37.3 -33.2 59 - S 30 33 16 18 984.1 - -
16/08:30am -27.3 -37.2 -32.0 64 - SSE 32 39 17 21 984.3 - -
16/08:00am -25.9 -33.9 -29.6 71 - SSE 22 26 12 14 984.3 - -
16/07:30am -24.9 -31.9 -28.2 74 - SSE 17 22 9 12 984.2 - -
16/07:00am -24.0 -30.3 -27.6 72 - SSE 13 17 7 9 984.2 984.8 -
16/06:30am -22.0 -28.6 -25.8 71 - NE 15 20 8 11 984.4 - -
16/06:00am -22.1 -29.7 -26.2 69 - NNE 20 26 11 14 984.5 - -
16/05:30am -21.9 -29.3 -25.6 72 - N 19 22 10 12 984.6 - -
16/05:00am -23.5 -29.7 -26.8 74 - SSE 13 20 7 11 984.9 - -
16/04:30am -23.9 -30.2 -27.2 74 - SSE 13 17 7 9 985.1 - -
16/04:00am -23.4 -30.0 -26.9 73 - SSE 15 24 8 13 985.3 985.7 -
16/03:30am -22.1 -28.3 -26.4 68 - N 13 19 7 10 985.5 - -
16/03:00am -21.1 -26.9 -24.8 72 - N 11 17 6 9 985.9 - -
16/02:30am -22.3 -27.2 -25.4 76 - SE 6 15 3 8 985.8 - -
16/02:00am -23.0 -28.8 -25.9 77 - SSE 11 15 6 8 986.1 - -
16/01:30am -23.0 -29.2 -25.9 77 - S 13 17 7 9 986.2 - -
16/01:00am -22.8 -29.0 -25.6 78 - SSE 13 15 7 8 986.4 986.8 -
16/12:30am -23.0 -29.6 -25.7 79 - SSE 15 19 8 10 986.5 - -
16/12:00am -22.7 -29.7 -25.6 77 - SE 17 17 9 9 986.8 - -
 
Date/Time
EST
Temp
°C
App
Temp
°C
Dew
Point
°C
Rel
Hum
%
Delta-T
°C
Wind Press
QNH
hPa
Press
MSL
hPa
Rain since
9am
mm
Dir  Spd
km/h
Gust
km/h
Spd
kts
Gust
kts
15/11:30pm -22.3 -28.9 -25.2 77 - SSE 15 17 8 9 987.2 - -
15/11:00pm -21.0 -26.0 -24.2 75 - NE 7 11 4 6 987.3 - -
15/10:30pm -21.5 -27.3 -24.4 77 - SSE 11 15 6 8 987.5 - -
15/10:00pm -21.6 -27.4 -24.7 76 - SE 11 17 6 9 987.7 988.2 -
15/09:30pm -21.0 -26.4 -24.8 71 - W 9 17 5 9 987.8 - -
15/09:00pm -19.1 -26.0 -23.7 67 - N 17 22 9 12 988.0 - -
15/08:30pm -19.3 -25.8 -23.4 70 - NNE 15 22 8 12 988.1 - -
15/08:00pm -19.4 -25.9 -23.3 71 - NNE 15 20 8 11 988.5 - -
15/07:30pm -19.4 -25.9 -23.0 73 - NNE 15 20 8 11 988.8 - -
15/07:00pm -19.5 -26.8 -23.4 71 - N 19 24 10 13 988.7 989.2 -

Other Formats:

Comma delimited format used in spreadsheet applications
http://www.bom.gov.au/fwo/IDT60803/IDT60803.89611.axf

JavaScript Object Notation format (JSON) in row-major order
http://www.bom.gov.au/fwo/IDT60803/IDT60803.89611.json